Time;durP1;ratioP1;P1;durP2;ratioP2;P2;SDS_P1;SDS_P2;PMS_P1;PMS_P2;Temp;Humidity;BMP_temperature;BMP_pressure;BME280_temperature;BME280_humidity;BME280_pressure;Samples;Min_cycle;Max_cycle;Signal;HPM_P1;HPM_P2
2021/03/31 00:01:58;;;;;;;20.73;12.27;;;13.70;91.80;;;;;;4151019;28;20525;-82
2021/03/31 00:04:01;;;;;;;17.00;12.03;;;13.80;91.60;;;;;;4146137;28;20496;-82
2021/03/31 00:06:04;;;;;;;18.77;12.67;;;13.80;91.70;;;;;;4148192;28;20846;-82
2021/03/31 00:08:06;;;;;;;16.40;12.17;;;13.70;91.80;;;;;;4149890;28;20496;-82
2021/03/31 00:10:15;;;;;;;18.13;12.00;;;13.70;91.90;;;;;;4148489;28;20523;-82
2021/03/31 00:12:17;;;;;;;16.80;12.30;;;13.70;92.10;;;;;;4149903;28;20498;-82
2021/03/31 00:14:19;;;;;;;23.70;13.67;;;13.60;92.60;;;;;;4148680;28;20517;-82
2021/03/31 00:16:20;;;;;;;17.07;11.97;;;13.50;93.10;;;;;;4151431;28;20490;-82
2021/03/31 00:18:24;;;;;;;19.50;13.53;;;13.50;93.40;;;;;;4149199;28;20586;-82
2021/03/31 00:20:26;;;;;;;19.23;12.43;;;13.40;93.90;;;;;;4151782;28;20490;-82
2021/03/31 00:22:29;;;;;;;16.53;13.53;;;13.30;94.30;;;;;;4151397;28;21140;-82
2021/03/31 00:24:30;;;;;;;14.90;12.70;;;13.30;94.60;;;;;;4152062;28;20495;-82
2021/03/31 00:26:33;;;;;;;17.93;12.40;;;13.30;94.70;;;;;;4150574;28;20497;-82
2021/03/31 00:28:34;;;;;;;17.53;12.27;;;13.30;95.00;;;;;;4151630;28;20490;-82
2021/03/31 00:30:37;;;;;;;18.33;12.67;;;13.20;95.10;;;;;;4150439;28;20907;-82
2021/03/31 00:32:47;;;;;;;15.40;11.50;;;13.20;95.50;;;;;;4150688;28;20482;-82
2021/03/31 00:34:50;;;;;;;19.60;12.40;;;13.10;95.70;;;;;;4149048;28;20495;-82
2021/03/31 00:36:52;;;;;;;15.33;12.10;;;13.10;96.00;;;;;;4150594;28;20493;-82
2021/03/31 00:38:55;;;;;;;19.87;12.93;;;13.10;96.00;;;;;;4148671;28;20547;-83
2021/03/31 00:40:57;;;;;;;15.67;11.80;;;13.00;96.20;;;;;;4152920;28;20485;-81
2021/03/31 00:42:58;;;;;;;16.43;12.03;;;12.90;96.50;;;;;;4150910;28;20481;-81
2021/03/31 00:45:00;;;;;;;17.30;11.87;;;12.90;97.00;;;;;;4147005;28;20490;-81
2021/03/31 00:47:03;;;;;;;20.60;12.60;;;12.80;97.30;;;;;;4149591;28;20864;-82
2021/03/31 00:49:05;;;;;;;19.40;12.70;;;12.70;97.40;;;;;;4156345;28;20494;-80
2021/03/31 00:51:07;;;;;;;14.63;12.20;;;12.70;97.80;;;;;;4160113;28;20492;-80
2021/03/31 00:53:10;;;;;;;19.43;12.90;;;12.70;97.90;;;;;;4159070;28;20499;-80
2021/03/31 00:55:14;;;;;;;19.50;13.30;;;12.60;98.10;;;;;;4152380;28;20914;-81
2021/03/31 00:57:16;;;;;;;23.93;12.90;;;12.60;98.30;;;;;;4151421;28;20481;-80
2021/03/31 00:59:18;;;;;;;15.80;12.27;;;12.60;98.30;;;;;;4152028;28;20496;-80
2021/03/31 01:01:20;;;;;;;16.13;12.40;;;12.50;98.30;;;;;;4152525;28;20498;-80
2021/03/31 01:03:22;;;;;;;16.80;11.97;;;12.40;98.30;;;;;;4153231;28;20489;-81
2021/03/31 01:05:26;;;;;;;16.23;11.20;;;12.30;98.30;;;;;;4150262;28;20549;-81
2021/03/31 01:07:28;;;;;;;12.70;11.33;;;12.30;98.30;;;;;;4150700;28;20482;-81
2021/03/31 01:09:30;;;;;;;18.67;12.60;;;12.20;98.30;;;;;;4148861;28;20496;-81
2021/03/31 01:11:41;;;;;;;18.47;13.13;;;12.20;98.30;;;;;;4148095;28;20489;-81
2021/03/31 01:13:52;;;;;;;14.93;12.10;;;12.10;98.30;;;;;;4149990;28;20497;-81
2021/03/31 01:16:02;;;;;;;16.43;10.90;;;12.10;98.30;;;;;;4152131;28;20493;-81
2021/03/31 01:18:09;;;;;;;20.30;12.83;;;12.10;98.30;;;;;;4149335;28;20500;-81
2021/03/31 01:20:56;;;;;;;18.07;11.43;;;12.10;98.30;;;;;;4149716;28;21124;-81
2021/03/31 01:23:36;;;;;;;14.00;10.80;;;12.10;98.30;;;;;;4150314;28;20502;-80
2021/03/31 01:25:43;;;;;;;16.97;11.70;;;12.10;98.30;;;;;;4151665;28;20493;-80
2021/03/31 01:28:33;;;;;;;19.00;12.80;;;12.00;98.30;;;;;;4148717;28;20485;-80
2021/03/31 01:30:41;;;;;;;15.73;11.47;;;11.90;98.30;;;;;;4121580;28;20509;-80
2021/03/31 01:33:10;;;;;;;15.37;11.73;;;11.90;98.30;;;;;;4151098;28;20544;-80
2021/03/31 01:35:15;;;;;;;16.90;11.40;;;11.90;98.30;;;;;;4127893;28;20493;-80
2021/03/31 01:37:23;;;;;;;16.70;12.37;;;11.90;98.30;;;;;;4154371;28;20490;-80
2021/03/31 01:39:27;;;;;;;15.97;11.50;;;11.80;98.30;;;;;;4152321;28;20517;-80
2021/03/31 01:41:31;;;;;;;17.10;12.03;;;11.80;98.30;;;;;;4155046;28;21016;-80
2021/03/31 01:43:34;;;;;;;17.10;12.20;;;11.80;98.30;;;;;;4149737;28;20554;-80
2021/03/31 01:45:38;;;;;;;17.30;11.93;;;11.70;98.30;;;;;;4150889;28;20510;-80
2021/03/31 01:47:44;;;;;;;16.83;11.77;;;11.60;98.30;;;;;;4152290;28;20564;-81
2021/03/31 01:49:47;;;;;;;19.43;12.70;;;11.60;98.30;;;;;;4152952;28;20489;-81
2021/03/31 01:51:55;;;;;;;18.40;12.57;;;11.60;98.30;;;;;;4151883;28;20489;-81
2021/03/31 01:53:58;;;;;;;12.87;11.57;;;11.50;98.30;;;;;;4153559;28;20496;-81
2021/03/31 01:56:01;;;;;;;17.47;11.93;;;11.60;98.30;;;;;;4155735;28;20490;-81
2021/03/31 01:58:04;;;;;;;23.30;12.43;;;11.50;98.30;;;;;;4157780;28;20500;-82
2021/03/31 02:00:08;;;;;;;16.77;12.23;;;11.50;98.30;;;;;;4153754;28;20490;-82
2021/03/31 02:02:12;;;;;;;16.33;11.40;;;11.50;98.30;;;;;;4152342;28;20478;-81
2021/03/31 02:04:15;;;;;;;15.40;11.93;;;11.30;98.30;;;;;;4153878;28;20528;-81
2021/03/31 02:06:18;;;;;;;13.30;10.30;;;11.40;98.30;;;;;;4155901;28;20498;-81
2021/03/31 02:08:22;;;;;;;18.33;11.53;;;11.30;98.30;;;;;;4151175;28;20553;-81
2021/03/31 02:10:25;;;;;;;15.40;12.10;;;11.20;98.30;;;;;;4151790;28;20548;-82
2021/03/31 02:12:28;;;;;;;15.67;11.30;;;11.20;98.30;;;;;;4150361;28;21390;-81
2021/03/31 02:14:34;;;;;;;16.30;11.83;;;11.20;98.30;;;;;;4149813;28;20489;-80
2021/03/31 02:16:37;;;;;;;18.10;11.87;;;11.20;98.30;;;;;;4150921;28;21618;-81
2021/03/31 02:18:40;;;;;;;16.80;12.57;;;11.20;98.30;;;;;;4150091;28;20489;-80
2021/03/31 02:20:44;;;;;;;17.63;11.40;;;11.30;98.30;;;;;;4152071;28;20625;-81
2021/03/31 02:22:47;;;;;;;16.67;12.37;;;11.20;98.30;;;;;;4151009;28;20521;-81
2021/03/31 02:24:50;;;;;;;18.13;12.23;;;11.20;98.30;;;;;;4152249;28;20490;-81
2021/03/31 02:26:52;;;;;;;18.30;13.00;;;11.10;98.30;;;;;;4152714;28;20492;-81
2021/03/31 02:28:54;;;;;;;21.57;12.33;;;11.20;98.30;;;;;;4151276;28;20995;-82
2021/03/31 02:30:56;;;;;;;16.77;11.50;;;11.20;98.30;;;;;;4150984;28;20482;-81
2021/03/31 02:33:01;;;;;;;15.63;12.40;;;11.30;98.30;;;;;;4152175;28;20555;-81
2021/03/31 02:35:08;;;;;;;17.13;11.67;;;11.30;98.30;;;;;;4151012;28;20500;-81
2021/03/31 02:37:10;;;;;;;19.30;12.77;;;11.20;98.30;;;;;;4152083;28;20485;-81
2021/03/31 02:39:14;;;;;;;20.67;13.00;;;11.20;98.30;;;;;;4151121;28;20482;-81
2021/03/31 02:41:18;;;;;;;17.23;11.97;;;11.10;98.30;;;;;;4151795;28;20494;-81
2021/03/31 02:43:21;;;;;;;16.67;13.63;;;11.10;98.30;;;;;;4149954;28;20569;-81
2021/03/31 02:45:25;;;;;;;14.70;12.60;;;11.00;98.30;;;;;;4152132;28;20494;-82
2021/03/31 02:47:30;;;;;;;15.73;13.07;;;11.00;98.30;;;;;;4146225;28;20500;-81
2021/03/31 02:49:32;;;;;;;15.87;12.07;;;11.00;98.30;;;;;;4153418;28;20553;-82
2021/03/31 02:51:36;;;;;;;26.90;13.07;;;10.90;98.30;;;;;;4153460;28;20485;-82
2021/03/31 03:07:07;;;;;;;17.83;12.90;;;10.90;98.30;;;;;;4237841;27;20570;-81
2021/03/31 03:09:09;;;;;;;19.97;12.60;;;10.80;98.30;;;;;;4233754;28;20493;-81
2021/03/31 03:11:11;;;;;;;19.00;13.30;;;10.80;98.30;;;;;;4240765;28;20554;-81
2021/03/31 03:13:14;;;;;;;17.40;12.70;;;10.80;98.30;;;;;;4233773;28;20490;-81
2021/03/31 03:15:19;;;;;;;19.50;13.60;;;10.80;98.30;;;;;;4235501;28;20484;-81
2021/03/31 03:17:21;;;;;;;22.30;13.23;;;10.70;98.30;;;;;;4235115;28;20495;-81
2021/03/31 03:19:23;;;;;;;16.53;13.20;;;10.70;98.30;;;;;;4233522;28;20855;-81
2021/03/31 03:21:27;;;;;;;15.93;12.50;;;10.70;98.30;;;;;;4227086;28;20493;-81
2021/03/31 03:23:37;;;;;;;17.13;12.90;;;10.80;98.30;;;;;;4642552;22;20494;-84
2021/03/31 03:25:41;;;;;;;20.47;12.83;;;10.80;98.30;;;;;;4174056;28;20481;-84
2021/03/31 03:27:45;;;;;;;17.10;12.27;;;10.70;98.30;;;;;;4191808;28;20482;-83
2021/03/31 03:29:49;;;;;;;18.70;12.33;;;10.60;98.30;;;;;;4193160;28;20483;-84
2021/03/31 03:31:51;;;;;;;18.60;13.70;;;10.60;98.30;;;;;;4192648;28;20534;-83
2021/03/31 03:33:54;;;;;;;17.90;13.00;;;10.60;98.30;;;;;;4194193;28;20595;-83
2021/03/31 03:35:56;;;;;;;14.17;11.60;;;10.60;98.30;;;;;;4194523;28;20518;-84
2021/03/31 03:37:59;;;;;;;17.60;14.03;;;10.50;98.30;;;;;;4188900;28;20538;-84
2021/03/31 03:40:03;;;;;;;19.67;12.27;;;10.30;98.30;;;;;;4189911;28;20590;-84
2021/03/31 03:42:06;;;;;;;19.20;12.47;;;10.40;98.30;;;;;;4182423;28;20512;-84
2021/03/31 03:44:08;;;;;;;20.00;12.47;;;10.40;98.30;;;;;;4183161;28;20578;-84
2021/03/31 03:46:11;;;;;;;14.93;12.47;;;10.30;98.30;;;;;;4192397;28;21121;-84
2021/03/31 03:48:14;;;;;;;19.73;14.30;;;10.20;98.30;;;;;;4182450;28;21013;-84
2021/03/31 03:50:16;;;;;;;18.30;13.90;;;10.20;98.30;;;;;;4188516;28;20566;-83
2021/03/31 03:52:21;;;;;;;20.40;12.80;;;10.20;98.30;;;;;;4190499;28;20571;-83
2021/03/31 03:54:23;;;;;;;17.53;12.37;;;10.20;98.30;;;;;;4190691;28;20478;-82
2021/03/31 03:56:26;;;;;;;17.67;12.00;;;10.20;98.30;;;;;;4192753;28;20943;-83
2021/03/31 03:58:28;;;;;;;17.20;12.43;;;10.20;98.30;;;;;;4199866;28;21322;-82
2021/03/31 04:00:30;;;;;;;15.70;12.57;;;10.20;98.30;;;;;;4195390;28;20495;-84
2021/03/31 04:02:32;;;;;;;19.70;13.30;;;10.10;98.30;;;;;;4194273;28;20486;-83
2021/03/31 04:04:34;;;;;;;18.90;13.80;;;10.00;98.30;;;;;;4200435;28;20532;-83
2021/03/31 04:06:37;;;;;;;19.73;12.33;;;10.00;98.30;;;;;;4191679;28;20488;-83
2021/03/31 04:08:39;;;;;;;18.23;13.13;;;10.00;98.30;;;;;;4174490;28;20875;-83
2021/03/31 04:10:46;;;;;;;19.17;12.13;;;9.90;98.30;;;;;;4175330;28;21029;-84
2021/03/31 04:12:51;;;;;;;18.97;12.50;;;9.80;98.30;;;;;;4180464;28;20530;-83
2021/03/31 04:14:54;;;;;;;17.83;12.40;;;9.80;98.30;;;;;;4187265;28;21036;-82
2021/03/31 04:16:56;;;;;;;20.90;13.37;;;9.60;98.30;;;;;;4177018;28;20851;-84
2021/03/31 04:19:02;;;;;;;18.40;12.70;;;9.60;98.30;;;;;;4166831;28;20513;-84
2021/03/31 04:21:07;;;;;;;17.07;12.83;;;9.60;98.30;;;;;;4179481;28;20566;-84
2021/03/31 04:23:09;;;;;;;19.97;12.20;;;9.60;98.30;;;;;;4180317;28;20488;-83
2021/03/31 04:25:12;;;;;;;17.00;12.37;;;9.60;98.30;;;;;;4186915;28;20487;-83
2021/03/31 04:27:17;;;;;;;18.80;12.20;;;9.60;98.30;;;;;;4184722;28;20497;-84
2021/03/31 04:29:21;;;;;;;18.20;13.77;;;9.60;98.30;;;;;;4184574;28;20493;-84
2021/03/31 04:31:24;;;;;;;22.97;12.20;;;9.50;98.30;;;;;;4176795;28;20458;-84
2021/03/31 04:33:27;;;;;;;19.20;12.03;;;9.40;98.30;;;;;;4181586;28;20463;-84
2021/03/31 04:35:30;;;;;;;17.67;12.33;;;9.30;98.30;;;;;;4176939;28;20483;-84
2021/03/31 04:37:32;;;;;;;17.80;12.20;;;9.30;98.30;;;;;;4179155;28;20895;-83
2021/03/31 04:39:34;;;;;;;18.30;12.20;;;9.30;98.30;;;;;;4175075;28;20498;-84
2021/03/31 04:41:36;;;;;;;18.70;12.30;;;9.30;98.30;;;;;;4177224;28;20840;-84
2021/03/31 04:43:39;;;;;;;15.10;11.63;;;9.30;98.30;;;;;;4181232;28;20500;-83
2021/03/31 04:45:42;;;;;;;18.47;12.80;;;9.30;98.30;;;;;;4177499;28;20988;-84
2021/03/31 04:47:44;;;;;;;18.37;12.63;;;9.40;98.30;;;;;;4185069;28;20556;-83
2021/03/31 04:49:46;;;;;;;17.40;12.53;;;9.30;98.30;;;;;;4187916;28;20520;-86
2021/03/31 04:51:56;;;;;;;14.57;11.77;;;9.30;98.30;;;;;;4185306;28;20492;-83
2021/03/31 04:53:58;;;;;;;16.93;12.37;;;9.40;98.30;;;;;;4178370;28;20574;-84
2021/03/31 04:56:00;;;;;;;18.27;13.33;;;9.40;98.30;;;;;;4174998;28;21063;-84
2021/03/31 04:58:03;;;;;;;19.60;13.37;;;9.40;98.30;;;;;;4185929;28;20496;-83
2021/03/31 05:00:06;;;;;;;19.27;13.67;;;9.50;98.30;;;;;;4184093;28;20505;-82
2021/03/31 05:02:09;;;;;;;18.57;13.37;;;9.40;98.30;;;;;;4192376;28;20466;-84
2021/03/31 05:04:11;;;;;;;15.73;12.40;;;9.50;98.30;;;;;;4169722;28;20471;-83
2021/03/31 05:06:13;;;;;;;20.43;14.03;;;9.50;98.30;;;;;;4179651;28;20509;-83
2021/03/31 05:08:15;;;;;;;18.20;14.17;;;9.50;98.30;;;;;;4180465;28;20939;-83
2021/03/31 05:10:17;;;;;;;17.03;12.70;;;9.60;98.30;;;;;;4184544;28;20488;-83
2021/03/31 05:12:19;;;;;;;16.00;12.90;;;9.60;98.30;;;;;;4168174;28;20589;-83
2021/03/31 05:14:22;;;;;;;15.07;12.17;;;9.50;98.30;;;;;;4180802;28;20487;-84
2021/03/31 05:16:24;;;;;;;20.07;13.33;;;9.50;98.30;;;;;;4198319;28;20483;-81
2021/03/31 05:18:27;;;;;;;19.40;12.87;;;9.50;98.30;;;;;;4199721;28;20501;-82
2021/03/31 05:20:29;;;;;;;24.73;14.43;;;9.40;98.30;;;;;;4198554;28;20486;-82
2021/03/31 05:22:31;;;;;;;23.73;13.80;;;9.40;98.30;;;;;;4189856;28;20476;-83
2021/03/31 05:24:33;;;;;;;17.83;12.70;;;9.40;98.30;;;;;;4189463;28;20473;-83
2021/03/31 05:26:35;;;;;;;20.07;13.70;;;9.30;98.30;;;;;;4189350;28;20880;-86
2021/03/31 05:28:37;;;;;;;19.17;13.40;;;9.30;98.30;;;;;;4171896;28;20483;-87
2021/03/31 05:30:39;;;;;;;19.07;13.43;;;9.40;98.30;;;;;;4189804;28;20828;-83
2021/03/31 05:32:41;;;;;;;19.27;13.07;;;9.40;98.30;;;;;;4178487;28;20457;-83
2021/03/31 05:34:46;;;;;;;20.57;12.67;;;9.40;98.30;;;;;;4187280;28;20488;-86
2021/03/31 05:36:48;;;;;;;24.43;13.87;;;9.40;98.30;;;;;;4175634;28;20485;-85
2021/03/31 05:38:50;;;;;;;17.40;13.00;;;9.40;98.30;;;;;;4182108;28;20457;-86
2021/03/31 05:40:56;;;;;;;18.60;12.80;;;9.50;98.30;;;;;;4181631;28;20580;-86
2021/03/31 05:43:01;;;;;;;18.80;12.93;;;9.70;98.30;;;;;;4184734;28;20479;-83
2021/03/31 05:45:06;;;;;;;18.27;11.97;;;9.70;98.30;;;;;;4182470;28;20495;-83
2021/03/31 05:47:09;;;;;;;20.23;13.07;;;9.70;98.30;;;;;;4194347;28;20506;-84
2021/03/31 05:49:12;;;;;;;17.93;12.73;;;9.70;98.30;;;;;;4195476;28;20506;-84
2021/03/31 05:51:16;;;;;;;17.63;12.97;;;9.80;98.30;;;;;;4195642;28;20565;-83
2021/03/31 05:53:18;;;;;;;19.93;14.07;;;9.80;98.30;;;;;;4185979;28;20545;-84
2021/03/31 05:55:21;;;;;;;21.37;14.00;;;9.90;98.30;;;;;;4190312;28;20492;-84
2021/03/31 05:57:27;;;;;;;28.73;13.50;;;9.90;98.30;;;;;;4189687;28;21043;-83
2021/03/31 05:59:29;;;;;;;23.00;14.83;;;9.90;98.30;;;;;;4186352;28;20581;-83
2021/03/31 06:01:31;;;;;;;19.87;12.93;;;9.90;98.30;;;;;;4177267;28;20594;-84
2021/03/31 06:03:34;;;;;;;20.47;13.50;;;9.90;98.30;;;;;;4168502;28;20520;-84
2021/03/31 06:05:36;;;;;;;18.50;14.13;;;9.90;98.30;;;;;;4172637;28;20490;-83
2021/03/31 06:07:41;;;;;;;16.80;12.90;;;9.90;98.30;;;;;;4178250;28;20986;-84
2021/03/31 06:10:03;;;;;;;24.20;14.33;;;10.00;98.30;;;;;;4182817;28;20998;-83
2021/03/31 06:12:07;;;;;;;21.77;14.30;;;10.10;98.30;;;;;;4169716;28;20489;-84
2021/03/31 06:14:09;;;;;;;18.00;13.27;;;10.30;98.30;;;;;;4182159;28;20586;-83
2021/03/31 06:16:26;;;;;;;19.30;12.93;;;10.40;98.30;;;;;;4188323;28;20494;-83
2021/03/31 06:18:33;;;;;;;20.53;13.90;;;10.40;98.30;;;;;;4182504;28;20525;-83
2021/03/31 06:20:49;;;;;;;19.50;13.30;;;10.50;98.30;;;;;;4184911;28;20528;-83
2021/03/31 06:23:07;;;;;;;19.27;13.43;;;10.70;98.30;;;;;;4192515;28;20479;-85
2021/03/31 06:25:14;;;;;;;18.33;14.07;;;10.90;98.30;;;;;;4193710;28;20820;-84
2021/03/31 06:27:28;;;;;;;18.90;14.37;;;11.00;98.30;;;;;;4188046;28;20486;-85
2021/03/31 06:29:38;;;;;;;22.37;14.40;;;11.10;98.30;;;;;;4186782;28;20585;-86
2021/03/31 06:31:42;;;;;;;17.67;13.43;;;11.10;98.30;;;;;;4180704;28;20479;-85
2021/03/31 06:33:45;;;;;;;17.23;13.47;;;11.30;98.30;;;;;;4191944;28;20489;-85
2021/03/31 06:35:50;;;;;;;19.00;14.57;;;11.40;98.30;;;;;;4192257;28;20502;-85
2021/03/31 06:38:04;;;;;;;21.10;14.00;;;11.60;98.30;;;;;;4185856;28;21076;-86
2021/03/31 06:40:08;;;;;;;20.20;14.33;;;11.80;98.30;;;;;;4181711;28;20574;-84
2021/03/31 06:42:13;;;;;;;20.53;14.87;;;11.80;98.30;;;;;;4180831;28;20495;-85
2021/03/31 06:44:17;;;;;;;22.50;14.63;;;11.90;98.20;;;;;;4186070;28;21058;-85
2021/03/31 06:46:31;;;;;;;20.30;14.60;;;11.90;97.60;;;;;;4192154;28;20518;-85
2021/03/31 06:48:36;;;;;;;20.33;14.57;;;11.90;97.60;;;;;;4178538;28;20590;-84
2021/03/31 06:50:38;;;;;;;20.07;15.23;;;12.00;97.80;;;;;;4182026;28;20486;-85
2021/03/31 06:52:53;;;;;;;21.47;15.43;;;12.20;97.40;;;;;;4191729;28;20525;-84
2021/03/31 06:54:59;;;;;;;20.53;14.43;;;12.40;97.10;;;;;;4188217;28;20498;-85
2021/03/31 06:57:01;;;;;;;19.93;15.70;;;12.60;97.00;;;;;;4190093;28;20498;-85
2021/03/31 06:59:03;;;;;;;19.00;13.80;;;12.70;96.20;;;;;;4184744;28;20574;-83
2021/03/31 07:01:24;;;;;;;22.13;14.97;;;12.70;96.30;;;;;;4185883;28;20498;-84
2021/03/31 07:03:27;;;;;;;19.40;15.50;;;12.70;96.10;;;;;;4178001;28;20496;-84
2021/03/31 07:05:29;;;;;;;25.47;14.63;;;12.90;95.50;;;;;;4187353;28;21269;-84
2021/03/31 07:07:33;;;;;;;19.63;16.00;;;12.80;95.00;;;;;;4191252;28;20530;-83
2021/03/31 07:09:36;;;;;;;21.73;15.80;;;12.90;95.40;;;;;;4182387;28;20997;-83
2021/03/31 07:11:42;;;;;;;20.93;15.10;;;13.10;95.10;;;;;;4185853;28;20622;-83
2021/03/31 07:13:45;;;;;;;22.07;15.67;;;13.30;94.00;;;;;;4189148;28;20482;-83
2021/03/31 07:15:49;;;;;;;24.13;16.50;;;13.40;94.10;;;;;;4187331;28;20989;-83
2021/03/31 07:17:54;;;;;;;20.30;15.80;;;13.50;93.50;;;;;;4194338;28;20497;-83
2021/03/31 07:19:57;;;;;;;22.20;16.50;;;13.50;92.90;;;;;;4186795;28;20876;-82
2021/03/31 07:21:59;;;;;;;21.57;15.47;;;13.50;93.20;;;;;;4186046;28;20486;-83
2021/03/31 07:24:02;;;;;;;21.83;17.13;;;13.50;93.60;;;;;;4186512;28;20504;-82
2021/03/31 07:26:04;;;;;;;18.60;15.20;;;13.70;93.20;;;;;;4185080;28;20505;-83
2021/03/31 07:28:08;;;;;;;22.00;15.93;;;13.70;93.50;;;;;;4179132;28;20491;-85
2021/03/31 07:30:15;;;;;;;24.23;15.93;;;13.90;92.20;;;;;;4165805;28;20480;-85
2021/03/31 07:32:51;;;;;;;19.87;15.80;;;13.90;91.50;;;;;;4174658;28;20570;-86
2021/03/31 07:35:04;;;;;;;22.73;17.90;;;13.80;91.40;;;;;;4179570;28;20586;-89
2021/03/31 07:37:13;;;;;;;22.30;17.77;;;13.80;91.70;;;;;;4180994;28;20487;-88
2021/03/31 07:39:18;;;;;;;21.43;16.03;;;13.90;91.90;;;;;;4179608;28;20511;-89
2021/03/31 07:41:23;;;;;;;20.93;16.33;;;14.00;91.70;;;;;;4185272;28;21500;-88
2021/03/31 07:43:31;;;;;;;20.30;16.13;;;14.20;90.00;;;;;;4185383;28;20495;-88
2021/03/31 07:45:38;;;;;;;20.33;16.30;;;14.40;90.60;;;;;;4187684;28;21033;-88
2021/03/31 07:47:41;;;;;;;18.53;15.60;;;14.60;90.30;;;;;;4186333;28;20485;-88
2021/03/31 07:49:47;;;;;;;21.27;16.30;;;14.70;89.80;;;;;;4187062;28;20480;-88
2021/03/31 07:51:57;;;;;;;22.93;16.33;;;14.80;89.40;;;;;;4188789;28;20514;-89
2021/03/31 07:54:03;;;;;;;20.87;15.80;;;15.00;88.70;;;;;;4189533;28;20486;-88
2021/03/31 07:56:13;;;;;;;22.13;16.50;;;15.20;87.20;;;;;;4190500;28;21008;-89
2021/03/31 07:58:21;;;;;;;19.30;16.17;;;15.30;84.80;;;;;;4179911;28;20490;-88
2021/03/31 08:00:52;;;;;;;23.53;17.83;;;15.30;83.80;;;;;;4182006;28;20925;-88
2021/03/31 08:02:54;;;;;;;22.10;18.00;;;15.50;83.60;;;;;;4182841;28;20500;-89
2021/03/31 08:05:07;;;;;;;23.10;17.20;;;15.50;83.50;;;;;;4180646;28;21037;-89
2021/03/31 08:07:20;;;;;;;23.03;19.07;;;15.90;83.60;;;;;;4191831;28;20574;-86
2021/03/31 08:09:26;;;;;;;24.20;16.90;;;16.10;81.60;;;;;;4179490;28;22055;-88
2021/03/31 08:11:59;;;;;;;24.20;17.20;;;16.30;81.00;;;;;;4185327;28;20483;-85
2021/03/31 08:14:01;;;;;;;22.70;16.73;;;16.30;79.90;;;;;;4184242;28;20480;-84
2021/03/31 08:16:27;;;;;;;22.10;17.50;;;16.50;79.30;;;;;;4182510;28;20491;-85
2021/03/31 08:18:32;;;;;;;21.37;17.17;;;16.70;79.10;;;;;;4181661;28;20487;-85
2021/03/31 08:20:37;;;;;;;21.10;16.90;;;16.90;78.30;;;;;;4185923;28;20491;-86
2021/03/31 08:22:40;;;;;;;24.80;19.20;;;17.00;78.60;;;;;;4187828;28;20569;-85
2021/03/31 08:24:44;;;;;;;26.63;18.57;;;17.10;78.00;;;;;;4185699;28;20623;-85
2021/03/31 08:26:48;;;;;;;23.10;17.60;;;17.20;77.90;;;;;;4185658;28;20555;-86
2021/03/31 08:28:50;;;;;;;23.80;18.07;;;17.20;77.10;;;;;;4186408;28;20859;-86
2021/03/31 08:30:52;;;;;;;26.60;17.90;;;17.10;76.20;;;;;;4189750;28;20482;-86
2021/03/31 08:32:57;;;;;;;23.73;17.07;;;17.30;76.00;;;;;;4183914;28;21136;-85
2021/03/31 08:35:00;;;;;;;22.30;18.50;;;17.40;76.20;;;;;;4185916;28;20998;-86
2021/03/31 08:37:04;;;;;;;24.33;18.20;;;17.50;75.60;;;;;;4185586;28;20492;-86
2021/03/31 08:39:10;;;;;;;21.37;17.23;;;17.50;75.20;;;;;;4183310;28;20487;-88
2021/03/31 08:41:16;;;;;;;24.47;18.30;;;17.60;74.50;;;;;;4185891;28;20504;-86
2021/03/31 08:43:19;;;;;;;24.17;18.63;;;17.80;73.20;;;;;;4185304;28;20491;-86
2021/03/31 08:45:28;;;;;;;21.27;16.67;;;17.90;73.40;;;;;;4179705;28;20498;-86
2021/03/31 08:47:32;;;;;;;23.50;18.00;;;18.00;72.60;;;;;;4177926;28;20492;-86
2021/03/31 08:49:36;;;;;;;20.80;16.83;;;18.00;72.50;;;;;;4181541;28;20571;-85
2021/03/31 08:51:41;;;;;;;19.97;15.77;;;18.20;72.60;;;;;;4185354;28;20495;-84
2021/03/31 08:53:53;;;;;;;23.73;18.67;;;18.40;71.30;;;;;;4187645;28;20512;-86
2021/03/31 08:55:56;;;;;;;22.10;17.27;;;18.50;70.30;;;;;;4180981;28;20490;-86
2021/03/31 08:57:58;;;;;;;23.47;16.63;;;18.60;69.40;;;;;;4181033;28;20567;-86
2021/03/31 09:00:05;;;;;;;24.20;17.37;;;18.70;69.10;;;;;;4181605;28;20502;-88
2021/03/31 09:02:08;;;;;;;25.03;17.53;;;18.80;69.30;;;;;;4180775;28;21174;-88
2021/03/31 09:04:30;;;;;;;25.07;18.50;;;18.80;67.80;;;;;;4181069;28;22101;-87
2021/03/31 09:06:40;;;;;;;24.60;16.33;;;18.90;67.50;;;;;;4182030;28;20571;-87
2021/03/31 09:08:49;;;;;;;26.67;19.23;;;18.90;68.50;;;;;;4181981;28;20471;-88
2021/03/31 09:10:53;;;;;;;23.23;16.60;;;19.20;68.40;;;;;;4183115;28;20475;-87
2021/03/31 09:12:56;;;;;;;22.90;16.80;;;19.50;67.70;;;;;;4181569;28;20488;-86
2021/03/31 09:15:00;;;;;;;21.30;17.33;;;19.60;66.10;;;;;;4183638;28;20518;-87
2021/03/31 09:17:05;;;;;;;21.83;16.47;;;19.70;66.10;;;;;;4181229;28;20562;-87
2021/03/31 09:19:08;;;;;;;26.23;16.97;;;19.80;65.40;;;;;;4185972;28;20905;-87
2021/03/31 09:21:12;;;;;;;23.30;18.33;;;20.10;65.40;;;;;;4182326;28;20483;-86
2021/03/31 09:23:24;;;;;;;25.80;18.67;;;20.20;65.30;;;;;;4179224;28;20602;-88
2021/03/31 09:25:27;;;;;;;22.47;16.80;;;20.30;64.60;;;;;;4265551;23;20502;-82
2021/03/31 09:27:35;;;;;;;20.80;16.50;;;20.20;63.60;;;;;;4187343;28;20499;-83
2021/03/31 09:29:42;;;;;;;20.53;16.00;;;20.20;63.90;;;;;;4190912;28;20559;-86
2021/03/31 09:31:45;;;;;;;20.60;16.20;;;20.30;63.90;;;;;;4184596;28;21000;-83
2021/03/31 09:34:09;;;;;;;24.27;17.20;;;20.70;63.30;;;;;;4186355;28;20464;-84
2021/03/31 09:36:14;;;;;;;24.40;17.23;;;20.90;63.10;;;;;;4185076;28;21027;-85
2021/03/31 09:38:26;;;;;;;20.83;15.37;;;21.20;62.60;;;;;;4187602;28;20905;-84
2021/03/31 09:40:30;;;;;;;24.10;17.07;;;21.50;62.00;;;;;;4185375;28;20498;-84
2021/03/31 09:42:34;;;;;;;20.80;16.57;;;21.60;61.60;;;;;;4190667;28;20528;-84
2021/03/31 09:45:08;;;;;;;23.07;16.10;;;21.70;61.70;;;;;;4186333;28;20492;-86
2021/03/31 09:47:11;;;;;;;20.73;16.03;;;22.00;61.20;;;;;;4192478;28;20483;-84
2021/03/31 09:49:13;;;;;;;23.00;15.83;;;22.00;61.00;;;;;;4186239;28;20996;-85
2021/03/31 09:51:16;;;;;;;20.83;16.53;;;22.00;61.40;;;;;;4185702;28;20495;-87
2021/03/31 09:53:21;;;;;;;20.50;14.53;;;22.20;60.00;;;;;;4190010;28;20488;-84
2021/03/31 09:55:25;;;;;;;20.43;16.10;;;22.40;60.10;;;;;;4188712;28;20484;-84
2021/03/31 09:57:29;;;;;;;18.83;14.90;;;22.50;60.50;;;;;;4189294;28;20496;-83
2021/03/31 09:59:31;;;;;;;24.00;16.60;;;22.80;59.70;;;;;;4187361;28;20475;-84
2021/03/31 10:01:34;;;;;;;24.87;17.47;;;22.90;59.00;;;;;;4190437;28;21018;-85
2021/03/31 10:03:36;;;;;;;23.50;15.90;;;22.90;58.60;;;;;;4183832;28;20502;-84
2021/03/31 10:05:38;;;;;;;21.10;16.07;;;22.90;58.40;;;;;;4185154;28;20495;-84
2021/03/31 10:07:40;;;;;;;25.17;16.53;;;23.20;58.50;;;;;;4186374;28;20483;-85
2021/03/31 10:09:44;;;;;;;21.63;16.00;;;23.40;57.40;;;;;;4189122;28;20482;-84
2021/03/31 10:11:55;;;;;;;21.70;15.57;;;23.60;57.40;;;;;;4183449;28;20484;-85
2021/03/31 10:13:58;;;;;;;21.97;15.93;;;23.60;57.20;;;;;;4186147;28;20849;-85
2021/03/31 10:16:03;;;;;;;26.70;17.30;;;23.90;56.80;;;;;;4183443;28;20545;-85
2021/03/31 10:18:12;;;;;;;80.27;57.60;;;23.90;56.60;;;;;;4186104;28;20484;-86
2021/03/31 10:20:17;;;;;;;36.47;26.47;;;24.00;57.30;;;;;;4180322;28;20499;-85
2021/03/31 10:22:20;;;;;;;40.87;32.17;;;24.10;56.80;;;;;;4186110;28;20580;-85
2021/03/31 10:24:44;;;;;;;25.00;16.83;;;24.30;56.50;;;;;;4188202;28;20476;-85
2021/03/31 10:27:07;;;;;;;20.30;15.83;;;24.30;55.90;;;;;;4188260;28;20502;-85
2021/03/31 10:29:29;;;;;;;23.20;16.90;;;24.30;55.70;;;;;;4184356;28;20480;-84
2021/03/31 10:31:54;;;;;;;24.00;17.97;;;24.40;55.40;;;;;;4187380;28;20480;-85
2021/03/31 10:33:56;;;;;;;31.50;25.40;;;24.40;55.60;;;;;;4180617;28;20487;-84
2021/03/31 10:36:00;;;;;;;24.10;16.37;;;24.60;55.70;;;;;;4176729;28;20510;-83
2021/03/31 10:38:03;;;;;;;21.70;16.03;;;24.70;52.80;;;;;;4184986;28;20497;-85
2021/03/31 10:47:51;;;;;;;22.53;16.07;;;24.50;52.00;;;;;;4184441;28;20870;-87
2021/03/31 10:49:54;;;;;;;20.03;16.97;;;24.80;52.10;;;;;;4182703;28;20486;-85
2021/03/31 10:51:58;;;;;;;24.03;19.47;;;25.00;51.70;;;;;;4182232;28;20490;-85
2021/03/31 10:54:05;;;;;;;24.50;18.30;;;25.20;51.60;;;;;;4182979;28;20499;-85
2021/03/31 10:56:07;;;;;;;22.07;17.23;;;25.30;52.00;;;;;;4184722;28;21044;-86
2021/03/31 10:58:10;;;;;;;19.77;16.13;;;25.50;51.80;;;;;;4183862;28;20502;-85
2021/03/31 11:00:14;;;;;;;34.00;27.67;;;25.70;50.50;;;;;;4181999;28;20532;-83